Time;durP1;ratioP1;P1;durP2;ratioP2;P2;SDS_P1;SDS_P2;PMS_P1;PMS_P2;Temp;Humidity;BMP_temperature;BMP_pressure;BME280_temperature;BME280_humidity;BME280_pressure;Samples;Min_cycle;Max_cycle;Signal;HPM_P1;HPM_P2
2023/10/20 00:01:29;;;;;;;3.83;3.10;;;15.80;99.90;;;;;;5053085;28;20628;-67
2023/10/20 00:03:55;;;;;;;5.68;3.47;;;15.90;99.90;;;;;;5053305;28;20182;-67
2023/10/20 00:06:20;;;;;;;4.10;3.00;;;15.80;99.90;;;;;;5053233;28;20171;-66
2023/10/20 00:08:46;;;;;;;4.03;3.10;;;15.80;99.90;;;;;;5053236;28;20248;-66
2023/10/20 00:11:12;;;;;;;3.95;3.50;;;15.90;99.90;;;;;;5053172;28;20183;-66
2023/10/20 00:13:38;;;;;;;3.78;3.38;;;15.80;99.90;;;;;;5051863;28;20179;-66
2023/10/20 00:16:04;;;;;;;3.92;3.35;;;15.90;99.90;;;;;;5053018;28;20167;-67
2023/10/20 00:18:30;;;;;;;4.07;3.53;;;15.90;99.90;;;;;;5053215;28;20509;-67
2023/10/20 00:20:56;;;;;;;3.30;2.97;;;16.00;99.90;;;;;;5053063;28;20250;-65
2023/10/20 00:23:22;;;;;;;4.10;3.15;;;15.90;99.90;;;;;;5053088;28;20167;-67
2023/10/20 00:25:47;;;;;;;4.60;3.15;;;15.90;99.90;;;;;;5053067;28;20186;-66
2023/10/20 00:28:13;;;;;;;7.05;2.88;;;15.90;99.90;;;;;;5051726;28;20179;-67
2023/10/20 00:30:39;;;;;;;4.75;2.78;;;15.90;99.90;;;;;;5052789;28;20203;-66
2023/10/20 00:33:05;;;;;;;4.45;3.20;;;15.90;99.90;;;;;;5056744;28;20651;-67
2023/10/20 00:35:31;;;;;;;4.40;2.90;;;15.90;99.90;;;;;;5057028;28;20470;-66
2023/10/20 00:37:58;;;;;;;3.60;2.75;;;15.90;99.90;;;;;;5056802;28;20264;-67
2023/10/20 00:40:23;;;;;;;3.85;2.97;;;15.90;99.90;;;;;;5056806;28;20191;-66
2023/10/20 00:42:49;;;;;;;3.95;2.72;;;15.90;99.90;;;;;;5056796;28;20178;-66
2023/10/20 00:45:15;;;;;;;3.80;2.65;;;15.90;99.90;;;;;;5056646;28;20203;-67
2023/10/20 00:47:43;;;;;;;3.42;2.70;;;15.90;99.90;;;;;;5056840;28;20537;-67
2023/10/20 00:50:11;;;;;;;4.00;2.60;;;16.00;99.90;;;;;;5056634;28;20198;-66
2023/10/20 00:52:37;;;;;;;5.75;2.63;;;16.00;99.90;;;;;;5056723;28;20574;-66
2023/10/20 00:55:07;;;;;;;3.17;2.50;;;16.00;99.90;;;;;;5056544;28;20167;-67
2023/10/20 00:57:37;;;;;;;2.78;2.53;;;16.00;99.90;;;;;;5056451;28;20217;-65
2023/10/20 01:00:04;;;;;;;4.82;2.40;;;15.90;99.90;;;;;;5056541;28;20186;-67
2023/10/20 01:02:30;;;;;;;3.25;2.55;;;15.90;99.90;;;;;;5056260;28;20664;-66
2023/10/20 01:04:57;;;;;;;2.88;2.53;;;16.00;99.90;;;;;;5056384;28;20171;-65
2023/10/20 01:07:24;;;;;;;4.35;2.17;;;16.00;99.90;;;;;;5056342;28;20179;-67
2023/10/20 01:09:50;;;;;;;3.40;2.20;;;16.00;99.90;;;;;;5056050;28;20680;-66
2023/10/20 01:12:15;;;;;;;2.53;2.25;;;16.00;99.90;;;;;;5056101;28;20278;-67
2023/10/20 01:14:42;;;;;;;4.63;2.35;;;16.00;99.90;;;;;;5056347;28;20171;-66
2023/10/20 01:17:09;;;;;;;2.63;2.13;;;16.10;99.90;;;;;;5056204;28;20179;-64
2023/10/20 01:19:37;;;;;;;3.25;2.55;;;16.10;99.90;;;;;;5054850;28;20247;-67
2023/10/20 01:22:03;;;;;;;3.75;2.40;;;16.10;99.90;;;;;;5056096;28;20703;-66
2023/10/20 01:24:29;;;;;;;2.67;2.38;;;16.10;99.90;;;;;;5055992;28;20168;-67
2023/10/20 01:26:55;;;;;;;3.08;2.38;;;16.10;99.90;;;;;;5055848;28;20535;-66
2023/10/20 01:29:21;;;;;;;2.83;2.55;;;16.10;99.90;;;;;;5055996;28;20280;-67
2023/10/20 01:31:47;;;;;;;3.75;2.67;;;16.10;99.90;;;;;;5056178;28;20633;-67
2023/10/20 01:34:12;;;;;;;4.18;2.40;;;16.10;99.90;;;;;;5055947;28;20636;-67
2023/10/20 01:36:39;;;;;;;3.22;2.40;;;16.00;99.90;;;;;;5055812;28;20223;-66
2023/10/20 01:39:05;;;;;;;2.60;2.40;;;16.00;99.90;;;;;;5055683;28;20175;-66
2023/10/20 01:41:31;;;;;;;3.17;2.50;;;16.00;99.90;;;;;;5055583;28;20725;-65
2023/10/20 01:43:56;;;;;;;4.78;2.60;;;15.90;99.90;;;;;;5055590;28;20502;-66
2023/10/20 01:46:23;;;;;;;3.08;2.50;;;16.00;99.90;;;;;;5055716;28;20226;-66
2023/10/20 01:48:48;;;;;;;3.20;2.90;;;16.00;99.90;;;;;;5055375;28;20628;-66
2023/10/20 01:51:14;;;;;;;3.65;2.90;;;16.00;99.90;;;;;;5055460;28;20179;-66
2023/10/20 01:53:40;;;;;;;3.75;2.80;;;16.00;99.90;;;;;;5055433;28;20180;-66
2023/10/20 01:56:05;;;;;;;3.45;3.10;;;16.00;99.90;;;;;;5055246;28;20182;-66
2023/10/20 01:58:32;;;;;;;4.25;3.08;;;15.90;99.90;;;;;;5055545;28;20252;-66
2023/10/20 02:00:57;;;;;;;4.45;3.25;;;15.90;99.90;;;;;;5055425;28;20172;-66
2023/10/20 02:03:23;;;;;;;4.15;3.33;;;15.90;99.90;;;;;;5055317;28;20233;-66
2023/10/20 02:05:49;;;;;;;5.40;3.55;;;15.90;99.90;;;;;;5055267;28;20582;-66
2023/10/20 02:08:15;;;;;;;4.38;3.40;;;15.90;99.90;;;;;;5055200;28;20167;-66
2023/10/20 02:10:44;;;;;;;5.45;3.80;;;15.90;99.90;;;;;;5055028;28;20294;-67
2023/10/20 02:13:10;;;;;;;5.07;3.67;;;15.80;99.90;;;;;;5055268;28;20226;-67
2023/10/20 02:15:36;;;;;;;4.43;4.00;;;15.80;99.90;;;;;;5055297;28;20179;-67
2023/10/20 02:18:01;;;;;;;4.30;3.90;;;15.80;99.90;;;;;;5055098;28;20186;-67
2023/10/20 02:20:27;;;;;;;4.65;4.25;;;15.80;99.90;;;;;;5055309;28;20234;-66
2023/10/20 02:22:53;;;;;;;5.03;4.53;;;15.70;99.90;;;;;;5055670;28;20706;-66
2023/10/20 02:25:19;;;;;;;5.55;4.70;;;15.70;99.90;;;;;;5054768;28;20194;-65
2023/10/20 02:27:47;;;;;;;5.38;4.97;;;15.70;99.90;;;;;;5054990;28;20180;-66
2023/10/20 02:30:14;;;;;;;5.80;5.30;;;15.70;99.90;;;;;;5054706;28;20214;-67
2023/10/20 02:32:40;;;;;;;6.43;5.82;;;15.80;99.90;;;;;;5055119;28;20644;-67
2023/10/20 02:35:08;;;;;;;6.60;5.82;;;15.70;99.90;;;;;;5055019;28;20175;-67
2023/10/20 02:37:34;;;;;;;8.50;6.40;;;15.70;99.90;;;;;;5054571;28;20175;-66
2023/10/20 02:40:04;;;;;;;7.28;6.57;;;15.80;99.90;;;;;;5054449;28;20713;-67
2023/10/20 02:42:31;;;;;;;7.88;7.05;;;15.70;99.90;;;;;;5054685;28;20172;-67
2023/10/20 02:44:56;;;;;;;8.13;6.95;;;15.70;99.90;;;;;;5054489;28;20183;-65
2023/10/20 02:47:22;;;;;;;8.05;7.35;;;15.70;99.90;;;;;;5054731;28;20225;-66
2023/10/20 02:49:58;;;;;;;8.98;8.05;;;15.70;99.90;;;;;;5054274;28;20199;-67
2023/10/20 02:52:24;;;;;;;9.52;8.48;;;15.70;99.90;;;;;;5054280;28;20501;-66
2023/10/20 02:54:54;;;;;;;9.70;8.70;;;15.70;99.90;;;;;;5053700;28;20172;-66
2023/10/20 02:57:22;;;;;;;12.25;9.50;;;15.70;99.90;;;;;;5054384;28;20167;-67
2023/10/20 02:59:48;;;;;;;9.48;8.45;;;15.70;99.90;;;;;;5054134;28;20221;-67
2023/10/20 03:02:16;;;;;;;10.75;9.70;;;15.70;99.90;;;;;;5054074;28;20201;-67
2023/10/20 03:04:41;;;;;;;10.80;9.73;;;15.60;99.90;;;;;;5054048;28;20188;-67
2023/10/20 03:07:08;;;;;;;11.40;10.30;;;15.60;99.90;;;;;;5053906;28;20182;-66
2023/10/20 03:09:35;;;;;;;11.55;10.55;;;15.60;99.90;;;;;;5054031;28;20542;-67
2023/10/20 03:12:01;;;;;;;11.00;10.10;;;15.70;99.90;;;;;;5054055;28;20183;-67
2023/10/20 03:14:27;;;;;;;11.07;10.07;;;15.70;99.90;;;;;;5052719;28;20529;-67
2023/10/20 03:16:53;;;;;;;10.65;9.65;;;15.70;99.90;;;;;;5053814;28;20178;-66
2023/10/20 03:19:19;;;;;;;11.57;10.07;;;15.70;99.90;;;;;;5053659;28;20280;-67
2023/10/20 03:21:45;;;;;;;10.35;9.40;;;15.70;99.90;;;;;;5053735;28;20182;-66
2023/10/20 03:24:10;;;;;;;10.45;9.48;;;15.70;99.90;;;;;;5053928;28;20172;-66
2023/10/20 03:26:36;;;;;;;10.93;10.02;;;15.70;99.90;;;;;;5053826;28;20664;-67
2023/10/20 03:29:02;;;;;;;10.93;10.02;;;15.70;99.90;;;;;;5053635;28;20206;-66
2023/10/20 03:31:27;;;;;;;11.10;10.20;;;15.70;99.90;;;;;;5053707;28;20182;-66
2023/10/20 03:33:53;;;;;;;10.63;9.68;;;15.70;99.90;;;;;;5053606;28;20255;-67
2023/10/20 03:36:19;;;;;;;11.57;10.57;;;15.70;99.90;;;;;;5053417;28;20176;-66
2023/10/20 03:38:44;;;;;;;11.63;10.48;;;15.60;99.90;;;;;;5053636;28;20171;-66
2023/10/20 03:41:11;;;;;;;11.70;10.60;;;15.50;99.90;;;;;;5053652;28;20536;-66
2023/10/20 03:43:37;;;;;;;11.65;10.45;;;15.40;99.90;;;;;;5053548;28;20171;-66
2023/10/20 03:46:04;;;;;;;12.00;10.93;;;15.50;99.90;;;;;;5053398;28;20178;-67
2023/10/20 03:48:32;;;;;;;11.60;10.40;;;15.40;99.90;;;;;;5053322;28;20199;-66
2023/10/20 03:50:58;;;;;;;12.27;11.05;;;15.50;99.90;;;;;;5053128;28;20219;-65
2023/10/20 03:53:41;;;;;;;11.65;10.55;;;15.50;99.90;;;;;;5053488;28;20167;-67
2023/10/20 03:56:07;;;;;;;11.10;10.10;;;15.50;99.90;;;;;;5053419;28;20163;-67
2023/10/20 03:58:35;;;;;;;10.98;10.00;;;15.60;99.90;;;;;;5053288;28;20175;-66
2023/10/20 04:01:02;;;;;;;11.30;10.30;;;15.60;99.90;;;;;;5053227;28;20233;-67
2023/10/20 04:03:30;;;;;;;11.27;9.73;;;15.50;99.90;;;;;;5053057;28;20233;-66
2023/10/20 04:05:56;;;;;;;11.15;10.10;;;15.50;99.90;;;;;;5052403;28;20179;-66
2023/10/20 04:08:23;;;;;;;11.05;10.07;;;15.50;99.90;;;;;;5053271;28;20254;-66
2023/10/20 04:10:48;;;;;;;11.25;10.13;;;15.50;99.90;;;;;;5053200;28;20207;-66
2023/10/20 04:13:15;;;;;;;11.48;10.50;;;15.50;99.90;;;;;;5053146;28;20197;-66
2023/10/20 04:15:42;;;;;;;10.68;9.80;;;15.40;99.90;;;;;;5053063;28;20258;-67
2023/10/20 04:18:08;;;;;;;11.07;10.07;;;15.50;99.90;;;;;;5052856;28;20536;-65
2023/10/20 04:20:39;;;;;;;10.68;9.65;;;15.50;99.90;;;;;;5053041;28;20575;-66
2023/10/20 04:23:07;;;;;;;10.85;9.82;;;15.50;99.90;;;;;;5053140;28;20175;-67
2023/10/20 04:25:39;;;;;;;10.85;9.52;;;15.50;99.90;;;;;;5052997;28;20203;-66
2023/10/20 05:00:31;;;;;;;10.77;9.65;;;15.50;99.90;;;;;;5031790;28;20195;-63
2023/10/20 05:08:04;;;;;;;9.30;8.50;;;15.50;99.90;;;;;;5032629;28;20509;-68
2023/10/20 05:10:31;;;;;;;11.25;9.88;;;15.50;99.90;;;;;;5032835;28;20250;-69
2023/10/20 05:12:56;;;;;;;10.70;9.80;;;15.40;99.90;;;;;;5032790;28;20202;-67
2023/10/20 05:15:22;;;;;;;11.75;10.60;;;15.50;99.90;;;;;;5032596;28;20645;-68
2023/10/20 05:17:50;;;;;;;10.27;9.27;;;15.40;99.90;;;;;;5033689;28;20262;-68
2023/10/20 05:20:20;;;;;;;10.38;9.38;;;15.40;99.90;;;;;;5036187;28;20232;-68
2023/10/20 05:22:46;;;;;;;10.50;9.57;;;15.40;99.90;;;;;;5036003;28;20557;-68
2023/10/20 05:25:13;;;;;;;10.00;9.10;;;15.30;99.90;;;;;;5036264;28;20185;-68
2023/10/20 05:27:39;;;;;;;9.93;9.13;;;15.30;99.90;;;;;;5036227;28;20633;-68
2023/10/20 05:30:11;;;;;;;11.52;10.38;;;15.30;99.90;;;;;;5035998;28;20200;-68
2023/10/20 05:32:39;;;;;;;10.85;9.82;;;15.40;99.90;;;;;;5036121;28;20171;-67
2023/10/20 05:35:08;;;;;;;10.52;9.60;;;15.50;99.90;;;;;;5035744;28;20176;-67
2023/10/20 05:37:34;;;;;;;10.38;9.48;;;15.40;99.90;;;;;;5035965;28;20183;-68
2023/10/20 05:40:00;;;;;;;11.57;10.48;;;15.40;99.90;;;;;;5035868;28;20544;-68
2023/10/20 05:42:25;;;;;;;11.30;10.40;;;15.50;99.90;;;;;;5035869;28;20641;-68
2023/10/20 05:45:09;;;;;;;10.57;9.57;;;15.40;99.90;;;;;;5035767;28;20183;-68
2023/10/20 05:47:36;;;;;;;10.15;9.15;;;15.40;99.90;;;;;;5035694;28;20176;-68
2023/10/20 05:50:02;;;;;;;10.82;9.18;;;15.50;99.90;;;;;;5035534;28;20297;-68
2023/10/20 05:52:28;;;;;;;10.35;9.45;;;15.50;99.90;;;;;;5035704;28;20191;-68
2023/10/20 05:54:56;;;;;;;10.40;9.50;;;15.50;99.90;;;;;;5035641;28;20171;-68
2023/10/20 05:57:25;;;;;;;9.85;8.95;;;15.60;99.90;;;;;;5035498;28;20180;-67
2023/10/20 05:59:51;;;;;;;10.48;9.48;;;15.60;99.90;;;;;;5035484;28;20176;-67
2023/10/20 06:02:16;;;;;;;9.63;8.80;;;15.60;99.90;;;;;;5035245;28;20184;-68
2023/10/20 06:04:42;;;;;;;9.82;8.82;;;15.60;99.90;;;;;;5035571;28;20636;-68
2023/10/20 06:07:08;;;;;;;10.68;9.70;;;15.50;99.90;;;;;;5035464;28;20200;-65
2023/10/20 06:09:33;;;;;;;9.93;8.93;;;15.50;99.90;;;;;;5034137;28;20230;-67
2023/10/20 06:11:59;;;;;;;10.73;9.73;;;15.50;99.90;;;;;;5035158;28;20191;-67
2023/10/20 06:14:26;;;;;;;9.43;8.63;;;15.50;99.90;;;;;;5035153;28;20230;-67
2023/10/20 06:16:52;;;;;;;10.18;9.18;;;15.50;99.90;;;;;;5035050;28;20206;-68
2023/10/20 06:19:18;;;;;;;10.60;9.55;;;15.50;99.90;;;;;;5034847;28;20260;-67
2023/10/20 06:21:45;;;;;;;9.85;8.95;;;15.50;99.90;;;;;;5035184;28;20604;-65
2023/10/20 06:24:11;;;;;;;10.32;9.25;;;15.40;99.90;;;;;;5035086;28;20263;-67
2023/10/20 06:26:38;;;;;;;9.90;9.00;;;15.40;99.90;;;;;;5034957;28;20184;-67
2023/10/20 06:29:20;;;;;;;10.30;9.38;;;15.50;99.90;;;;;;5033984;28;20203;-68
2023/10/20 06:31:55;;;;;;;9.65;8.52;;;15.50;99.90;;;;;;5034762;28;20197;-67
2023/10/20 06:34:23;;;;;;;9.43;8.52;;;15.50;99.90;;;;;;5034835;28;20644;-67
2023/10/20 06:37:28;;;;;;;10.35;8.80;;;15.50;99.90;;;;;;5034738;28;20176;-67
2023/10/20 06:39:44;;;;;;;9.43;8.63;;;15.40;99.90;;;;;;5034321;28;20192;-67
2023/10/20 06:42:10;;;;;;;9.52;8.60;;;15.50;99.90;;;;;;5034572;28;20182;-67
2023/10/20 06:44:36;;;;;;;10.98;9.80;;;15.50;99.90;;;;;;5034474;28;20548;-68
2023/10/20 06:47:02;;;;;;;9.32;8.43;;;15.50;99.90;;;;;;5034634;28;20229;-68
2023/10/20 06:49:28;;;;;;;9.32;8.52;;;15.50;99.90;;;;;;5034499;28;20274;-68
2023/10/20 06:51:54;;;;;;;9.70;8.90;;;15.50;99.90;;;;;;5034464;28;20279;-67
2023/10/20 06:54:20;;;;;;;9.32;8.43;;;15.50;99.90;;;;;;5034454;28;20179;-67
2023/10/20 06:56:45;;;;;;;11.27;10.18;;;15.50;99.90;;;;;;5034211;28;20175;-67
2023/10/20 06:59:15;;;;;;;9.85;8.85;;;15.50;99.90;;;;;;5049824;28;20664;-68
2023/10/20 07:01:42;;;;;;;9.07;8.18;;;15.60;99.90;;;;;;5034555;28;20176;-68
2023/10/20 07:04:10;;;;;;;8.43;7.60;;;15.60;99.90;;;;;;5034313;28;20176;-66
2023/10/20 07:06:36;;;;;;;8.70;7.80;;;15.60;99.90;;;;;;5034226;28;20177;-67
2023/10/20 07:09:11;;;;;;;8.00;7.25;;;15.70;99.90;;;;;;5033913;28;20212;-67
2023/10/20 07:11:38;;;;;;;8.55;7.75;;;15.70;99.90;;;;;;5034401;28;20184;-68
2023/10/20 07:14:05;;;;;;;7.63;6.93;;;15.70;99.90;;;;;;5034175;28;20184;-68
2023/10/20 07:16:31;;;;;;;8.52;7.72;;;15.70;99.90;;;;;;5034060;28;20707;-68
2023/10/20 07:18:57;;;;;;;7.97;7.28;;;15.90;99.90;;;;;;5034120;28;20222;-67
2023/10/20 07:21:22;;;;;;;7.65;6.95;;;15.70;99.90;;;;;;5033813;28;20220;-67
2023/10/20 07:23:48;;;;;;;7.07;6.53;;;15.80;99.90;;;;;;5033767;28;20164;-68
2023/10/20 07:26:17;;;;;;;10.07;6.70;;;15.80;99.90;;;;;;5033820;28;20180;-68
2023/10/20 07:28:43;;;;;;;6.93;6.32;;;15.70;99.90;;;;;;5033846;28;20226;-69
2023/10/20 07:31:16;;;;;;;13.88;9.50;;;15.70;99.90;;;;;;5033829;28;20188;-67
2023/10/20 07:33:41;;;;;;;7.07;6.47;;;15.70;99.90;;;;;;5033751;28;20668;-68
2023/10/20 07:36:07;;;;;;;8.70;7.78;;;15.60;99.90;;;;;;5033596;28;20183;-68
2023/10/20 07:38:33;;;;;;;7.25;6.55;;;15.70;99.90;;;;;;5033590;28;20180;-67
2023/10/20 07:41:11;;;;;;;8.05;7.13;;;15.70;99.90;;;;;;5033606;28;20179;-67
2023/10/20 07:43:38;;;;;;;7.65;6.65;;;15.70;99.90;;;;;;5033697;28;20168;-67
2023/10/20 07:46:04;;;;;;;6.70;6.10;;;15.60;99.90;;;;;;5033515;28;20629;-68
2023/10/20 07:48:32;;;;;;;6.97;6.40;;;15.70;99.90;;;;;;5033479;28;20183;-68
2023/10/20 07:51:01;;;;;;;7.13;6.43;;;15.60;99.90;;;;;;5033346;28;20203;-67
2023/10/20 07:53:29;;;;;;;6.80;5.90;;;15.70;99.90;;;;;;5033632;28;20172;-67
2023/10/20 07:55:55;;;;;;;6.47;5.88;;;15.80;99.90;;;;;;5033607;28;20175;-68
2023/10/20 07:58:21;;;;;;;6.45;5.85;;;15.70;99.90;;;;;;5033443;28;20172;-66
2023/10/20 08:00:47;;;;;;;5.82;5.28;;;15.80;99.90;;;;;;5033352;28;20242;-68
2023/10/20 08:03:12;;;;;;;8.13;5.75;;;15.70;99.90;;;;;;5033336;28;20633;-67
2023/10/20 08:05:39;;;;;;;5.55;4.97;;;15.70;99.90;;;;;;5033473;28;20537;-68
2023/10/20 08:08:05;;;;;;;5.82;5.22;;;15.80;99.90;;;;;;5033442;28;20168;-67
2023/10/20 08:10:32;;;;;;;5.88;5.38;;;15.80;99.90;;;;;;5033241;28;20278;-67
2023/10/20 08:12:58;;;;;;;6.20;5.60;;;15.70;99.90;;;;;;5033272;28;20176;-67
2023/10/20 08:15:27;;;;;;;6.15;5.65;;;15.80;99.90;;;;;;5033227;28;20720;-68
2023/10/20 08:17:53;;;;;;;5.72;5.22;;;15.80;99.90;;;;;;5033116;28;20184;-67
2023/10/20 08:20:19;;;;;;;6.60;6.00;;;15.80;99.90;;;;;;5032935;28;20227;-67
2023/10/20 08:22:45;;;;;;;6.55;6.05;;;15.80;99.90;;;;;;5033296;28;20172;-68
2023/10/20 08:25:11;;;;;;;6.07;5.57;;;15.80;99.90;;;;;;5033388;28;20172;-67
2023/10/20 08:27:37;;;;;;;6.97;5.80;;;15.70;99.90;;;;;;5033188;28;20172;-68
2023/10/20 08:30:03;;;;;;;6.65;5.85;;;15.80;99.90;;;;;;5032983;28;20295;-68
2023/10/20 08:32:29;;;;;;;7.30;6.68;;;15.80;99.90;;;;;;5033038;28;20222;-67
2023/10/20 08:34:54;;;;;;;7.00;6.40;;;15.80;99.90;;;;;;5033344;28;20180;-68
2023/10/20 08:37:20;;;;;;;6.57;6.00;;;15.80;99.90;;;;;;5033129;28;20188;-67
2023/10/20 08:39:46;;;;;;;7.25;6.55;;;15.90;99.90;;;;;;5033168;28;20180;-67
2023/10/20 08:42:19;;;;;;;7.30;6.13;;;15.90;99.90;;;;;;5032897;28;20266;-68
2023/10/20 08:44:45;;;;;;;8.75;6.15;;;15.90;99.90;;;;;;5032955;28;20165;-67
2023/10/20 08:47:13;;;;;;;6.68;6.07;;;15.90;99.90;;;;;;5032750;28;20625;-68
2023/10/20 08:49:39;;;;;;;7.38;6.00;;;15.90;99.90;;;;;;5033005;28;20282;-68
2023/10/20 08:52:08;;;;;;;8.15;5.70;;;15.90;99.90;;;;;;5033166;28;20184;-68
2023/10/20 08:54:34;;;;;;;5.80;5.20;;;15.80;99.90;;;;;;5036827;28;20168;-67
2023/10/20 08:57:00;;;;;;;6.03;5.43;;;15.90;99.90;;;;;;5036870;28;20175;-67
2023/10/20 08:59:25;;;;;;;5.38;4.90;;;16.00;99.90;;;;;;5037082;28;20176;-67
2023/10/20 09:01:51;;;;;;;6.10;5.07;;;16.00;99.90;;;;;;5036369;28;20211;-68
2023/10/20 09:04:22;;;;;;;5.38;4.97;;;16.00;99.90;;;;;;5036591;28;20588;-68
2023/10/20 09:06:48;;;;;;;5.15;4.65;;;16.00;99.90;;;;;;5036585;28;20621;-68
2023/10/20 09:09:14;;;;;;;11.95;10.20;;;16.00;99.90;;;;;;5036334;28;20211;-68
2023/10/20 09:11:43;;;;;;;9.48;8.48;;;16.00;99.90;;;;;;5036317;28;20728;-67
2023/10/20 09:14:14;;;;;;;11.05;9.88;;;16.00;99.90;;;;;;5036290;28;20641;-68
2023/10/20 09:16:40;;;;;;;7.68;6.97;;;16.00;99.90;;;;;;5036451;28;20168;-67
2023/10/20 09:19:08;;;;;;;5.90;5.40;;;16.10;99.90;;;;;;5036368;28;20229;-68
2023/10/20 09:21:34;;;;;;;5.53;5.03;;;16.10;99.90;;;;;;5036254;28;20223;-67
2023/10/20 09:24:05;;;;;;;5.60;5.10;;;16.10;99.90;;;;;;5036164;28;20241;-67
2023/10/20 09:26:34;;;;;;;6.25;5.38;;;16.20;99.90;;;;;;5036109;28;20179;-68
2023/10/20 09:29:00;;;;;;;6.20;5.63;;;16.10;99.90;;;;;;5035888;28;20179;-69
2023/10/20 09:31:27;;;;;;;7.40;6.72;;;16.20;99.90;;;;;;5036542;28;20172;-68
2023/10/20 09:33:53;;;;;;;8.13;7.32;;;16.20;99.90;;;;;;5036186;28;20188;-68
2023/10/20 09:36:19;;;;;;;8.35;7.57;;;16.20;99.90;;;;;;5036184;28;20178;-67
2023/10/20 09:38:52;;;;;;;9.13;7.95;;;16.20;99.90;;;;;;5035891;28;20636;-67
2023/10/20 09:41:22;;;;;;;6.43;5.60;;;16.30;99.90;;;;;;5035841;28;20532;-68
2023/10/20 09:43:49;;;;;;;6.22;5.65;;;16.30;99.90;;;;;;5035976;28;20194;-67
2023/10/20 09:46:39;;;;;;;6.43;5.43;;;16.40;99.90;;;;;;5035911;28;20542;-67
2023/10/20 09:49:15;;;;;;;6.15;5.55;;;16.40;99.90;;;;;;5036020;28;20180;-67
2023/10/20 09:51:46;;;;;;;5.70;5.10;;;16.30;99.90;;;;;;5035668;28;20172;-67
2023/10/20 09:54:24;;;;;;;5.85;4.93;;;16.30;99.90;;;;;;5035964;28;20170;-67
2023/10/20 09:56:51;;;;;;;5.18;4.70;;;16.20;99.90;;;;;;5035758;28;20218;-68
2023/10/20 09:59:23;;;;;;;4.93;4.35;;;16.20;99.90;;;;;;5035514;28;20703;-67
2023/10/20 10:01:49;;;;;;;5.88;5.38;;;16.30;99.90;;;;;;5035625;28;20506;-67
2023/10/20 10:04:29;;;;;;;4.90;4.40;;;16.20;99.90;;;;;;5035302;28;20218;-67
2023/10/20 10:06:55;;;;;;;4.63;3.70;;;16.20;99.90;;;;;;5035571;28;20172;-69
2023/10/20 10:09:21;;;;;;;5.10;3.90;;;16.20;99.90;;;;;;5035365;28;20203;-67
2023/10/20 10:11:48;;;;;;;4.13;3.70;;;16.30;99.90;;;;;;5034147;28;20282;-68
2023/10/20 10:14:21;;;;;;;3.72;3.30;;;16.40;99.90;;;;;;5035281;28;20188;-67
2023/10/20 10:16:56;;;;;;;3.05;2.70;;;16.40;99.90;;;;;;5035094;28;20176;-67
2023/10/20 10:19:26;;;;;;;3.15;2.70;;;16.50;99.90;;;;;;5035105;28;20178;-67
2023/10/20 10:21:53;;;;;;;3.65;2.45;;;16.50;99.90;;;;;;5035262;28;20187;-68
2023/10/20 10:24:21;;;;;;;3.53;2.67;;;16.50;99.90;;;;;;5034929;28;20176;-67
2023/10/20 10:26:51;;;;;;;2.38;2.03;;;16.50;99.90;;;;;;5034991;28;20179;-67
2023/10/20 10:29:41;;;;;;;3.83;2.38;;;16.60;99.90;;;;;;5034879;28;20208;-68
2023/10/20 10:32:14;;;;;;;3.38;2.20;;;16.50;99.90;;;;;;5034990;28;20184;-68
2023/10/20 10:34:44;;;;;;;6.03;2.22;;;16.50;99.90;;;;;;5034923;28;20175;-68
2023/10/20 10:37:10;;;;;;;3.17;1.83;;;16.50;99.90;;;;;;5035034;28;20584;-67
2023/10/20 10:39:36;;;;;;;2.75;1.67;;;16.50;99.90;;;;;;5034714;28;20176;-67
2023/10/20 10:42:03;;;;;;;1.65;1.55;;;16.40;99.90;;;;;;5034605;28;20657;-67
2023/10/20 10:44:34;;;;;;;2.03;1.33;;;16.40;99.90;;;;;;5034796;28;20163;-68
2023/10/20 10:47:01;;;;;;;4.63;1.65;;;16.30;99.90;;;;;;5034693;28;20187;-68
2023/10/20 10:49:26;;;;;;;1.33;1.10;;;16.30;99.90;;;;;;5034548;28;20736;-67
2023/10/20 10:51:52;;;;;;;2.03;1.23;;;16.40;99.90;;;;;;5034559;28;20215;-68
2023/10/20 10:54:18;;;;;;;1.40;1.30;;;16.30;99.90;;;;;;5034372;28;20576;-67
2023/10/20 10:56:45;;;;;;;1.83;1.08;;;16.30;99.90;;;;;;5034642;28;20258;-66
2023/10/20 10:59:11;;;;;;;2.08;1.20;;;16.30;99.90;;;;;;5034839;28;20168;-68
2023/10/20 11:01:40;;;;;;;1.95;1.17;;;16.30;99.90;;;;;;5034518;28;20267;-67
2023/10/20 11:04:08;;;;;;;2.55;1.08;;;16.30;99.90;;;;;;5034307;28;20171;-68
2023/10/20 11:06:37;;;;;;;2.42;1.08;;;16.20;99.90;;;;;;5034419;28;20255;-68
2023/10/20 11:09:13;;;;;;;2.92;1.30;;;16.10;99.90;;;;;;5033964;28;20225;-68
2023/10/20 11:11:45;;;;;;;2.78;1.60;;;16.10;99.90;;;;;;5034302;28;20172;-67
2023/10/20 11:14:23;;;;;;;1.60;1.00;;;16.00;99.90;;;;;;5034173;28;20305;-68
2023/10/20 11:16:49;;;;;;;1.40;1.30;;;16.10;99.90;;;;;;5033742;28;20292;-68
2023/10/20 11:19:15;;;;;;;1.50;1.40;;;15.90;99.90;;;;;;5034112;28;20219;-68
2023/10/20 11:21:49;;;;;;;1.48;1.10;;;15.90;99.90;;;;;;5034016;28;20191;-68
2023/10/20 11:24:50;;;;;;;2.10;1.20;;;16.00;99.90;;;;;;5034082;28;20214;-68
2023/10/20 11:27:16;;;;;;;1.23;1.00;;;16.00;99.90;;;;;;5030069;28;20266;-68
2023/10/20 11:29:42;;;;;;;3.28;1.20;;;15.90;99.90;;;;;;5033790;28;20283;-66
2023/10/20 11:32:13;;;;;;;0.98;0.85;;;15.90;99.90;;;;;;5033624;28;20199;-66
2023/10/20 11:34:39;;;;;;;1.23;0.80;;;15.90;99.90;;;;;;5033980;28;20179;-68
2023/10/20 11:37:05;;;;;;;1.27;1.10;;;15.80;99.90;;;;;;5033886;28;20173;-68
2023/10/20 11:39:33;;;;;;;2.33;1.27;;;15.80;99.90;;;;;;5033681;28;20187;-68
2023/10/20 11:41:59;;;;;;;2.38;1.10;;;15.80;99.90;;;;;;5033760;28;20172;-67
2023/10/20 11:44:25;;;;;;;3.33;1.30;;;15.80;99.90;;;;;;5033551;28;20172;-68
2023/10/20 11:46:54;;;;;;;2.05;1.30;;;15.80;99.90;;;;;;5033693;28;20645;-67
2023/10/20 11:49:26;;;;;;;2.08;1.30;;;15.80;99.90;;;;;;5033514;28;20192;-67
2023/10/20 11:51:53;;;;;;;2.20;1.40;;;15.80;99.90;;;;;;5032472;28;20180;-68
2023/10/20 11:54:18;;;;;;;2.00;1.30;;;15.80;99.90;;;;;;5033514;28;20175;-69
2023/10/20 11:56:44;;;;;;;2.53;1.45;;;15.70;99.90;;;;;;5033444;28;20179;-66
2023/10/20 11:59:11;;;;;;;2.83;1.60;;;15.70;99.90;;;;;;5033230;28;20605;-67
2023/10/20 12:01:37;;;;;;;2.50;1.73;;;15.80;99.90;;;;;;5033582;28;20172;-68
2023/10/20 12:04:08;;;;;;;2.00;1.60;;;15.80;99.90;;;;;;5033483;28;20214;-67
2023/10/20 12:06:37;;;;;;;2.83;1.63;;;15.80;99.90;;;;;;5033496;28;20168;-67
2023/10/20 12:09:10;;;;;;;2.17;1.30;;;15.70;99.90;;;;;;5033255;28;20541;-68
2023/10/20 12:11:37;;;;;;;2.28;1.75;;;15.80;99.90;;;;;;5033164;28;20553;-67
2023/10/20 12:14:04;;;;;;;1.88;1.63;;;15.70;99.90;;;;;;5033461;28;20194;-68
2023/10/20 12:16:30;;;;;;;3.55;1.80;;;15.70;99.90;;;;;;5033332;28;20180;-67
2023/10/20 12:19:01;;;;;;;2.47;2.28;;;15.70;99.90;;;;;;5033259;28;20511;-65
2023/10/20 12:21:28;;;;;;;2.95;2.33;;;15.60;99.90;;;;;;5032984;28;20215;-67
2023/10/20 12:23:54;;;;;;;2.65;2.45;;;15.60;99.90;;;;;;5033181;28;20168;-67
2023/10/20 12:26:20;;;;;;;2.75;2.55;;;15.70;99.90;;;;;;5032950;28;20266;-65
2023/10/20 12:28:46;;;;;;;2.97;2.67;;;15.60;99.90;;;;;;5036358;28;20263;-66
2023/10/20 12:31:12;;;;;;;4.00;2.80;;;15.60;99.90;;;;;;5037193;28;20208;-67
2023/10/20 12:33:37;;;;;;;2.90;2.70;;;15.60;99.90;;;;;;5037219;28;20313;-67
2023/10/20 12:36:03;;;;;;;3.83;2.67;;;15.60;99.90;;;;;;5037123;28;20172;-67
2023/10/20 12:38:29;;;;;;;3.58;2.92;;;15.60;99.90;;;;;;5037074;28;20259;-66
2023/10/20 12:40:57;;;;;;;3.92;3.08;;;15.60;99.90;;;;;;5036946;28;20187;-66
2023/10/20 12:43:24;;;;;;;3.20;3.00;;;15.70;99.90;;;;;;5037160;28;20191;-66
2023/10/20 12:45:49;;;;;;;4.13;2.97;;;15.60;99.90;;;;;;5037039;28;20255;-66
2023/10/20 12:48:15;;;;;;;3.10;2.80;;;15.60;99.90;;;;;;5037077;28;20625;-66
2023/10/20 12:50:41;;;;;;;3.58;3.17;;;15.50;99.90;;;;;;5036924;28;20695;-67
2023/10/20 12:53:07;;;;;;;2.90;2.63;;;15.60;99.90;;;;;;5036723;28;20230;-67
2023/10/20 12:55:33;;;;;;;3.17;2.67;;;15.60;99.90;;;;;;5036596;28;20629;-66
2023/10/20 12:57:59;;;;;;;3.50;3.20;;;15.70;99.90;;;;;;5052200;28;20541;-67
2023/10/20 13:00:28;;;;;;;3.83;3.53;;;15.60;99.90;;;;;;5036748;28;20506;-68
2023/10/20 13:02:53;;;;;;;3.85;3.50;;;15.60;99.90;;;;;;5036437;28;20214;-66
2023/10/20 13:05:21;;;;;;;4.45;3.75;;;15.60;99.90;;;;;;5036540;28;20199;-67
2023/10/20 13:07:47;;;;;;;3.75;3.22;;;15.70;99.90;;;;;;5036378;28;20179;-66
2023/10/20 13:10:13;;;;;;;4.80;3.75;;;15.60;99.90;;;;;;5036636;28;20235;-67
2023/10/20 13:12:38;;;;;;;3.67;3.42;;;15.60;99.90;;;;;;5036597;28;20204;-67
2023/10/20 13:15:05;;;;;;;4.03;3.65;;;15.50;99.90;;;;;;5036511;28;20183;-66
2023/10/20 13:17:30;;;;;;;4.55;4.05;;;15.50;99.90;;;;;;5036406;28;20176;-67
2023/10/20 13:19:56;;;;;;;5.13;4.50;;;15.50;99.90;;;;;;5035839;28;20746;-66
2023/10/20 13:22:24;;;;;;;4.65;4.22;;;15.50;99.90;;;;;;5034959;28;20188;-67